Airfield :
LOGIN :

Register | Disclaimer

   EN    FR    IT 

 










Legend :    VFR   Marginal VFR   IFR   Intensive IFR   Very Intensive IFR
Visi :
Ceiling :
>= 8 km
>= 3000ft
5 to 8 km
1000 to 3000 ft
1500m to 5 km
500 to 1000 ft
800 to 1500m
200 to 500 ft
< 800m
< 200 ft
Symbols :   Thunderstorms  Fog  Heavy snow  Heavy precipitations  Wind > 20 kt
SIGMETs :     Misc.  Thunderstorms  Icing  Turbulence  Mountain Waves  Volcanic Ashes







- Airport Elevation : 1234 ft
- IATA code : LUX


ELLX - Luxembourg Findel

CURRENT METAR :
  • 170820Z 05012KT CAVOK 02/M00 Q1026 NOSIG

EXPIRED METARs :
  • 170750Z 06009KT CAVOK 01/M00 Q1026 NOSIG
  • 170720Z 05012KT 9000 NSC 01/M00 Q1026 NOSIG
  • 170650Z 06011KT 8000 NSC 01/M01 Q1026 NOSIG
  • 170620Z 06010KT 9000 NSC 01/M00 Q1025 NOSIG
  • 170550Z 04014KT 9000 NSC 02/M00 Q1025 NOSIG

TAF TAF ELLX
Valid from the 17 at 06:00 until the 18 at 12:00 UTC


170500Z 1706/1812 05011KT CAVOK
PROB30 1706/1709 5000 BR
TEMPO 1708/1716 08015G25KT
ATIS : +352 4798 27300
Met : +352 4798 27010 / 27050
No reported NOTAMs for that airfield.



MET'MAP, your aeronautical weather chart ! - Copyright ORBIFLY December 2007 - Disclaimer

ORBIFLY MET'MAP TEAM :

Programming & Development : Alexandra Zaïnal
Concept & Development : Baudouin d'Aumeries
Co-Development & Prog : Marc-Olivier Méhu
Technical & hardware support : Manuel Goepfert

Contact : metmap@orbifly.com




SOURCES & CREDITS :

   NOAA